createdAt,value
2022-09-20T00:01:16.390Z,102365.47
2022-09-20T00:03:45.728Z,102371.94
2022-09-20T00:06:15.030Z,102371.44
2022-09-20T00:08:43.006Z,102372.44
2022-09-20T00:11:16.060Z,102363.91
2022-09-20T00:13:44.427Z,102365.91
2022-09-20T00:16:14.890Z,102379.53
2022-09-20T00:18:41.838Z,102371.41
2022-09-20T00:21:16.492Z,102382.25
2022-09-20T00:23:43.175Z,102379.63
2022-09-20T00:26:09.660Z,102371.53
2022-09-20T00:28:36.262Z,102383.06
2022-09-20T00:31:03.332Z,102388.06
2022-09-20T00:33:49.756Z,102388.94
2022-09-20T00:36:16.644Z,102380.06
2022-09-20T00:38:43.199Z,102389.91
2022-09-20T00:41:09.978Z,102387.13
2022-09-20T00:43:42.578Z,102390.56
2022-09-20T00:46:29.415Z,102393.13
2022-09-20T00:49:01.440Z,102384.59
2022-09-20T00:51:34.838Z,102396.00
2022-09-20T00:54:04.884Z,102375.63
2022-09-20T00:56:34.758Z,102375.63
2022-09-20T00:59:19.891Z,102366.50
2022-09-20T01:01:47.453Z,102371.41
2022-09-20T01:04:16.667Z,102353.69
2022-09-20T01:06:46.081Z,102362.13
2022-09-20T01:09:12.685Z,102359.59
2022-09-20T01:11:40.593Z,102360.66
2022-09-20T01:14:07.663Z,102358.53
2022-09-20T01:16:34.982Z,102356.78
2022-09-20T01:19:08.313Z,102354.00
2022-09-20T01:21:34.930Z,102346.84
2022-09-20T01:24:11.421Z,102353.28
2022-09-20T01:26:59.020Z,102351.06
2022-09-20T01:29:37.709Z,102343.78
2022-09-20T01:32:11.725Z,102341.34
2022-09-20T01:34:46.191Z,102337.41
2022-09-20T01:37:33.152Z,102329.91
2022-09-20T01:40:36.797Z,102334.34
2022-09-20T01:43:21.683Z,102332.22
2022-09-20T01:45:49.802Z,102326.94
2022-09-20T01:48:22.288Z,102325.56
2022-09-20T01:51:25.055Z,102328.34
2022-09-20T01:54:12.591Z,102324.16
2022-09-20T01:57:03.701Z,102335.59
2022-09-20T01:59:54.769Z,102326.28
2022-09-20T02:02:32.700Z,102326.56
2022-09-20T02:05:20.936Z,102333.81
2022-09-20T02:07:58.969Z,102339.84
2022-09-20T02:10:50.105Z,102356.91
2022-09-20T02:13:28.411Z,102345.13
2022-09-20T02:16:25.264Z,102349.88
2022-09-20T02:18:57.932Z,102357.38
2022-09-20T02:21:50.775Z,102364.41
2022-09-20T02:24:29.909Z,102358.31
2022-09-20T02:27:23.180Z,102356.03
2022-09-20T02:30:14.693Z,102360.16
2022-09-20T02:32:58.421Z,102366.31
2022-09-20T02:35:47.205Z,102363.44
2022-09-20T02:38:34.145Z,102378.19
2022-09-20T02:41:29.704Z,102378.47
2022-09-20T02:44:04.257Z,102362.41
2022-09-20T02:46:41.151Z,102369.66
2022-09-20T02:49:28.752Z,102374.97
2022-09-20T02:52:01.381Z,102373.81
2022-09-20T02:54:58.801Z,102371.63
2022-09-20T02:57:37.061Z,102363.81
2022-09-20T03:00:13.143Z,102361.13
2022-09-20T03:02:51.437Z,102367.84
2022-09-20T03:05:33.045Z,102358.72
2022-09-20T03:08:18.350Z,102363.09
2022-09-20T03:10:53.904Z,102362.31
2022-09-20T03:13:42.112Z,102362.31
2022-09-20T03:16:21.422Z,102363.47
2022-09-20T03:19:03.093Z,102361.25
2022-09-20T03:21:41.505Z,102355.38
2022-09-20T03:24:34.503Z,102366.25
2022-09-20T03:27:24.475Z,102359.06
2022-09-20T03:30:15.130Z,102357.91
2022-09-20T03:32:53.740Z,102351.94
2022-09-20T03:36:01.200Z,102358.97
2022-09-20T03:38:48.381Z,102355.25
2022-09-20T03:41:36.865Z,102360.09
2022-09-20T03:44:34.464Z,102359.06
2022-09-20T03:47:19.729Z,102362.50
2022-09-20T03:49:59.298Z,102357.47
2022-09-20T03:52:54.774Z,102352.91
2022-09-20T03:55:32.883Z,102344.75
2022-09-20T03:58:19.380Z,102338.56
2022-09-20T04:01:28.019Z,102355.34
2022-09-20T04:04:19.565Z,102354.06
2022-09-20T04:07:09.133Z,102355.09
2022-09-20T04:10:16.586Z,102348.63
2022-09-20T04:13:02.002Z,102352.44
2022-09-20T04:15:54.923Z,102353.03
2022-09-20T04:18:50.368Z,102360.53
2022-09-20T04:21:28.978Z,102352.34
2022-09-20T04:24:24.025Z,102363.88
2022-09-20T04:27:00.491Z,102358.56
2022-09-20T04:29:39.213Z,102368.50
2022-09-20T04:32:27.887Z,102359.53
2022-09-20T04:35:19.193Z,102361.34
2022-09-20T04:37:47.506Z,102365.53
2022-09-20T04:40:22.195Z,102346.38
2022-09-20T04:43:10.058Z,102362.28
2022-09-20T04:45:58.295Z,102359.06
2022-09-20T04:48:56.572Z,102360.47
2022-09-20T04:52:10.301Z,102364.16
2022-09-20T04:54:54.747Z,102374.44
2022-09-20T04:57:48.966Z,102381.91
2022-09-20T05:00:19.312Z,102388.38
2022-09-20T05:03:16.543Z,102385.84
2022-09-20T05:06:28.146Z,102396.00
2022-09-20T05:09:23.856Z,102402.00
2022-09-20T05:11:57.809Z,102400.50
2022-09-20T05:14:40.915Z,102390.47
2022-09-20T05:17:45.971Z,102398.53
2022-09-20T05:20:25.268Z,102384.00
2022-09-20T05:23:14.502Z,102381.22
2022-09-20T05:25:56.502Z,102385.69
2022-09-20T05:28:31.510Z,102376.59
2022-09-20T05:31:04.851Z,102373.81
2022-09-20T05:33:37.318Z,102375.97
2022-09-20T05:36:03.759Z,102381.25
2022-09-20T05:38:42.792Z,102382.19
2022-09-20T05:41:18.729Z,102371.44
2022-09-20T05:44:02.175Z,102375.19
2022-09-20T05:46:49.494Z,102389.38
2022-09-20T05:49:25.062Z,102399.63
2022-09-20T05:52:09.889Z,102390.56
2022-09-20T05:54:47.559Z,102391.63
2022-09-20T05:57:32.865Z,102395.81
2022-09-20T06:00:08.526Z,102399.66
2022-09-20T06:02:43.614Z,102388.78
2022-09-20T06:05:25.223Z,102400.03
2022-09-20T06:08:24.301Z,102398.09
2022-09-20T06:11:12.694Z,102385.06
2022-09-20T06:14:15.168Z,102389.56
2022-09-20T06:16:47.991Z,102401.09
2022-09-20T06:19:36.947Z,102389.66
2022-09-20T06:22:24.933Z,102398.13
2022-09-20T06:25:09.780Z,102400.50
2022-09-20T06:27:43.436Z,102402.28
2022-09-20T06:30:20.122Z,102406.06
2022-09-20T06:33:10.209Z,102407.69
2022-09-20T06:35:45.290Z,102403.59
2022-09-20T06:38:41.839Z,102418.94
2022-09-20T06:41:30.654Z,102414.09
2022-09-20T06:43:59.121Z,102394.75
2022-09-20T06:46:30.850Z,102387.53
2022-09-20T06:48:58.205Z,102393.38
2022-09-20T06:51:27.430Z,102387.34
2022-09-20T06:53:56.043Z,102380.16
2022-09-20T06:56:26.724Z,102358.38
2022-09-20T06:58:54.100Z,102377.38
2022-09-20T07:01:29.729Z,102369.41
2022-09-20T07:03:57.586Z,102388.06
2022-09-20T07:06:24.173Z,102384.59
2022-09-20T07:08:50.913Z,102389.75
2022-09-20T07:11:18.068Z,102398.69
2022-09-20T07:13:45.568Z,102379.09
2022-09-20T07:16:16.562Z,102391.78
2022-09-20T07:18:43.211Z,102376.22
2022-09-20T07:21:17.836Z,102375.13
2022-09-20T07:23:48.669Z,102378.94
2022-09-20T07:26:20.349Z,102371.56
2022-09-20T07:28:47.204Z,102358.22
2022-09-20T07:31:14.013Z,102353.72
2022-09-20T07:33:40.699Z,102355.34
2022-09-20T07:36:07.448Z,102368.00
2022-09-20T07:38:34.026Z,102364.88
2022-09-20T07:41:02.394Z,102370.28
2022-09-20T07:43:31.000Z,102360.78
2022-09-20T07:45:59.409Z,102353.94
2022-09-20T07:48:36.960Z,102352.31
2022-09-20T07:51:12.886Z,102344.56
2022-09-20T07:53:40.172Z,102356.34
2022-09-20T07:56:08.048Z,102365.59
2022-09-20T07:58:35.806Z,102357.25
2022-09-20T08:01:09.214Z,102351.72
2022-09-20T08:03:36.226Z,102349.47
2022-09-20T08:06:08.601Z,102352.47
2022-09-20T08:08:36.975Z,102351.50
2022-09-20T08:11:06.767Z,102358.66
2022-09-20T08:16:29.064Z,102361.06
2022-09-20T08:19:00.958Z,102367.69
2022-09-20T08:21:31.542Z,102366.06
2022-09-20T08:23:59.590Z,102368.25
2022-09-20T08:26:27.802Z,102370.84
2022-09-20T08:28:56.176Z,102372.16
2022-09-20T08:31:25.502Z,102367.94
2022-09-20T08:33:53.023Z,102371.97
2022-09-20T08:36:22.089Z,102373.84
2022-09-20T08:41:46.012Z,102385.13
2022-09-20T08:44:27.896Z,102386.31
2022-09-20T08:47:25.065Z,102381.06
2022-09-20T08:49:57.684Z,102384.16
2022-09-20T08:52:37.012Z,102388.84
2022-09-20T08:55:17.924Z,102390.38
2022-09-20T08:57:49.137Z,102395.81
2022-09-20T09:00:19.312Z,102392.16
2022-09-20T09:02:46.857Z,102379.06
2022-09-20T09:05:31.694Z,102368.25
2022-09-20T09:08:00.762Z,102372.38
2022-09-20T09:10:54.091Z,102379.31
2022-09-20T09:13:33.119Z,102383.03
2022-09-20T09:16:03.282Z,102382.84
2022-09-20T09:18:39.306Z,102398.28
2022-09-20T09:21:08.615Z,102390.94
2022-09-20T09:23:49.504Z,102388.81
2022-09-20T09:26:22.704Z,102388.41
2022-09-20T09:29:16.955Z,102386.91
2022-09-20T09:31:45.283Z,102394.16
2022-09-20T09:34:25.140Z,102384.44
2022-09-20T09:36:51.953Z,102380.78
2022-09-20T09:39:29.078Z,102386.44
2022-09-20T09:41:56.518Z,102374.34
2022-09-20T09:44:25.712Z,102378.13
2022-09-20T09:46:53.665Z,102384.53
2022-09-20T09:49:36.256Z,102385.44
2022-09-20T09:52:24.581Z,102385.34
2022-09-20T09:54:55.189Z,102386.84
2022-09-20T09:58:06.549Z,102385.06
2022-09-20T10:00:35.776Z,102383.91
2022-09-20T10:03:05.157Z,102371.78
2022-09-20T10:06:14.831Z,102382.56
2022-09-20T10:08:51.107Z,102376.63
2022-09-20T10:11:28.568Z,102362.59
2022-09-20T10:14:12.586Z,102375.66
2022-09-20T10:16:41.797Z,102369.84
2022-09-20T10:19:34.717Z,102366.75
2022-09-20T10:22:34.277Z,102364.69
2022-09-20T10:25:00.712Z,102364.28
2022-09-20T10:28:07.327Z,102355.97
2022-09-20T10:30:58.372Z,102359.56
2022-09-20T10:33:34.361Z,102358.31
2022-09-20T10:36:13.150Z,102348.28
2022-09-20T10:39:01.253Z,102361.03
2022-09-20T10:42:04.714Z,102342.72
2022-09-20T10:44:58.111Z,102357.06
2022-09-20T10:47:33.213Z,102363.19
2022-09-20T10:50:12.004Z,102374.56
2022-09-20T10:53:17.089Z,102365.69
2022-09-20T10:56:08.400Z,102370.50
2022-09-20T10:59:12.316Z,102378.34
2022-09-20T11:01:41.837Z,102383.97
2022-09-20T11:04:38.487Z,102387.13
2022-09-20T11:07:32.885Z,102386.88
2022-09-20T11:10:04.956Z,102386.53
2022-09-20T11:12:39.794Z,102389.94
2022-09-20T11:15:19.168Z,102396.44
2022-09-20T11:18:05.997Z,102397.22
2022-09-20T11:20:47.570Z,102395.69
2022-09-20T11:23:22.616Z,102396.88
2022-09-20T11:26:04.894Z,102394.88
2022-09-20T11:28:37.554Z,102396.88
2022-09-20T11:31:55.641Z,102399.50
2022-09-20T11:34:37.557Z,102395.59
2022-09-20T11:37:04.208Z,102378.16
2022-09-20T11:39:42.436Z,102387.56
2022-09-20T11:42:16.443Z,102394.53
2022-09-20T11:44:43.508Z,102383.97
2022-09-20T11:47:50.339Z,102381.16
2022-09-20T11:51:00.635Z,102381.22
2022-09-20T11:53:45.869Z,102378.91
2022-09-20T11:56:15.457Z,102384.59
2022-09-20T11:58:48.319Z,102389.25
2022-09-20T12:01:28.232Z,102380.91
2022-09-20T12:04:30.549Z,102374.25
2022-09-20T12:06:58.657Z,102387.91
2022-09-20T12:09:42.393Z,102381.41
2022-09-20T12:12:33.703Z,102370.78
2022-09-20T12:15:03.034Z,102376.84
2022-09-20T12:17:52.594Z,102371.56
2022-09-20T12:20:44.892Z,102381.09
2022-09-20T12:23:39.432Z,102380.78
2022-09-20T12:26:07.682Z,102380.59
2022-09-20T12:28:40.014Z,102376.00
2022-09-20T12:31:21.933Z,102388.75
2022-09-20T12:34:24.597Z,102391.34
2022-09-20T12:36:53.677Z,102394.94
2022-09-20T12:39:30.068Z,102399.31
2022-09-20T12:42:12.130Z,102393.28
2022-09-20T12:44:38.653Z,102399.69
2022-09-20T12:47:11.149Z,102397.84
2022-09-20T12:50:05.219Z,102409.28
2022-09-20T12:52:53.371Z,102402.75
2022-09-20T12:55:29.999Z,102409.19
2022-09-20T12:58:06.439Z,102401.41
2022-09-20T13:00:41.971Z,102390.59
2022-09-20T13:03:21.157Z,102410.28
2022-09-20T13:05:52.640Z,102410.28
2022-09-20T13:08:25.956Z,102404.03
2022-09-20T13:11:09.195Z,102397.31
2022-09-20T13:13:35.633Z,102397.38
2022-09-20T13:16:06.028Z,102387.03
2022-09-20T13:18:36.148Z,102388.84
2022-09-20T13:21:07.248Z,102389.13
2022-09-20T13:23:45.452Z,102374.06
2022-09-20T13:26:13.805Z,102375.00
2022-09-20T13:28:51.507Z,102368.19
2022-09-20T13:31:21.109Z,102374.78
2022-09-20T13:33:49.123Z,102366.53
2022-09-20T13:36:27.666Z,102367.16
2022-09-20T13:38:57.015Z,102373.81
2022-09-20T13:41:27.560Z,102370.34
2022-09-20T13:43:54.195Z,102371.78
2022-09-20T13:46:29.831Z,102371.44
2022-09-20T13:49:20.730Z,102378.28
2022-09-20T13:51:48.883Z,102376.97
2022-09-20T13:54:29.390Z,102370.00
2022-09-20T13:57:02.452Z,102362.47
2022-09-20T13:59:40.500Z,102368.34
2022-09-20T14:02:19.516Z,102361.47
2022-09-20T14:04:46.709Z,102361.72
2022-09-20T14:07:15.131Z,102357.44
2022-09-20T14:09:41.789Z,102359.66
2022-09-20T14:12:11.336Z,102356.00
2022-09-20T14:14:39.102Z,102347.75
2022-09-20T14:17:09.571Z,102354.31
2022-09-20T14:19:41.407Z,102349.81
2022-09-20T14:22:22.880Z,102360.28
2022-09-20T14:25:13.420Z,102349.69
2022-09-20T14:27:40.850Z,102353.13
2022-09-20T14:30:27.681Z,102354.25
2022-09-20T14:32:56.536Z,102353.31
2022-09-20T14:35:23.479Z,102352.84
2022-09-20T14:37:53.129Z,102365.19
2022-09-20T14:40:40.792Z,102364.56
2022-09-20T14:43:20.905Z,102372.66
2022-09-20T14:45:56.998Z,102362.91
2022-09-20T14:48:23.576Z,102371.25
2022-09-20T14:51:09.659Z,102368.38
2022-09-20T14:53:38.229Z,102364.88
2022-09-20T14:56:04.881Z,102369.44
2022-09-20T14:58:32.404Z,102362.69
2022-09-20T15:01:07.216Z,102360.72
2022-09-20T15:03:41.566Z,102358.44
2022-09-20T15:06:12.818Z,102349.97
2022-09-20T15:08:45.419Z,102358.91
2022-09-20T15:11:14.645Z,102360.19
2022-09-20T15:13:41.455Z,102342.94
2022-09-20T15:16:08.108Z,102346.59
2022-09-20T15:18:41.211Z,102341.22
2022-09-20T15:21:07.998Z,102342.94
2022-09-20T15:23:35.629Z,102341.72
2022-09-20T15:26:02.195Z,102334.56
2022-09-20T15:28:29.125Z,102342.47
2022-09-20T15:30:58.589Z,102342.19
2022-09-20T15:33:25.607Z,102338.06
2022-09-20T15:35:52.211Z,102337.06
2022-09-20T15:38:19.578Z,102334.38
2022-09-20T15:40:48.916Z,102326.28
2022-09-20T15:43:19.537Z,102318.16
2022-09-20T15:45:51.589Z,102333.19
2022-09-20T15:48:22.895Z,102329.38
2022-09-20T15:51:02.409Z,102323.31
2022-09-20T15:53:37.031Z,102322.91
2022-09-20T15:56:13.610Z,102326.81
2022-09-20T15:58:46.179Z,102334.19
2022-09-20T16:01:16.690Z,102330.03
2022-09-20T16:03:45.100Z,102334.03
2022-09-20T16:06:13.279Z,102333.53
2022-09-20T16:08:41.928Z,102337.91
2022-09-20T16:11:12.606Z,102339.13
2022-09-20T16:13:39.371Z,102324.56
2022-09-20T16:16:08.616Z,102335.16
2022-09-20T16:18:55.066Z,102339.47
2022-09-20T16:21:21.926Z,102333.06
2022-09-20T16:23:53.694Z,102343.22
2022-09-20T16:26:22.484Z,102340.84
2022-09-20T16:28:49.255Z,102339.78
2022-09-20T16:31:36.828Z,102345.41
2022-09-20T16:34:05.968Z,102342.84
2022-09-20T16:36:33.460Z,102345.56
2022-09-20T16:39:01.206Z,102351.03
2022-09-20T16:41:28.685Z,102347.41
2022-09-20T16:43:55.633Z,102354.63
2022-09-20T16:46:27.218Z,102360.09
2022-09-20T16:49:00.257Z,102358.94
2022-09-20T16:51:34.650Z,102364.88
2022-09-20T16:54:02.871Z,102360.53
2022-09-20T16:56:33.953Z,102370.09
2022-09-20T16:59:05.405Z,102374.88
2022-09-20T17:01:32.262Z,102373.03
2022-09-20T17:03:59.158Z,102369.06
2022-09-20T17:06:25.841Z,102374.88
2022-09-20T17:08:58.811Z,102383.19
2022-09-20T17:11:27.990Z,102375.88
2022-09-20T17:13:55.849Z,102381.97
2022-09-20T17:16:27.885Z,102378.44
2022-09-20T17:18:56.759Z,102381.47
2022-09-20T17:21:23.298Z,102380.44
2022-09-20T17:23:55.103Z,102376.19
2022-09-20T17:26:27.583Z,102382.56
2022-09-20T17:28:59.057Z,102377.66
2022-09-20T17:31:33.694Z,102386.31
2022-09-20T17:34:02.224Z,102383.72
2022-09-20T17:36:31.625Z,102385.13
2022-09-20T17:39:03.855Z,102389.28
2022-09-20T17:41:32.799Z,102389.13
2022-09-20T17:44:00.756Z,102406.19
2022-09-20T17:46:31.849Z,102410.50
2022-09-20T17:49:04.680Z,102407.03
2022-09-20T17:51:34.751Z,102414.53
2022-09-20T17:54:02.597Z,102421.09
2022-09-20T17:56:31.052Z,102423.81
2022-09-20T17:58:59.136Z,102419.44
2022-09-20T18:01:27.341Z,102423.81
2022-09-20T18:03:56.396Z,102424.78
2022-09-20T18:06:26.691Z,102431.41
2022-09-20T18:08:58.676Z,102433.47
2022-09-20T18:11:33.412Z,102437.53
2022-09-20T18:14:01.492Z,102442.78
2022-09-20T18:16:28.196Z,102432.13
2022-09-20T18:18:54.863Z,102450.00
2022-09-20T18:21:24.036Z,102441.06
2022-09-20T18:23:52.103Z,102448.56
2022-09-20T18:26:24.651Z,102463.16
2022-09-20T18:29:04.768Z,102464.66
2022-09-20T18:31:46.260Z,102463.59
2022-09-20T18:34:18.453Z,102477.22
2022-09-20T18:36:54.177Z,102473.81
2022-09-20T18:39:25.729Z,102479.72
2022-09-20T18:41:53.305Z,102483.19
2022-09-20T18:44:21.585Z,102482.44
2022-09-20T18:46:49.218Z,102491.41
2022-09-20T18:49:16.988Z,102499.69
2022-09-20T18:51:44.636Z,102498.72
2022-09-20T18:54:11.907Z,102494.59
2022-09-20T18:56:43.243Z,102503.38
2022-09-20T18:59:21.936Z,102510.09
2022-09-20T19:01:54.526Z,102505.91
2022-09-20T19:04:46.145Z,102511.47
2022-09-20T19:07:28.064Z,102506.16
2022-09-20T19:10:08.756Z,102514.72
2022-09-20T19:12:50.422Z,102519.31
2022-09-20T19:15:35.720Z,102531.94
2022-09-20T19:18:11.291Z,102529.59
2022-09-20T19:20:52.039Z,102530.19
2022-09-20T19:23:36.867Z,102536.41
2022-09-20T19:26:22.464Z,102538.97
2022-09-20T19:28:51.179Z,102546.47
2022-09-20T19:31:29.152Z,102542.06
2022-09-20T19:33:58.142Z,102553.00
2022-09-20T19:37:08.449Z,102559.38
2022-09-20T19:39:53.655Z,102562.06
2022-09-20T19:42:25.929Z,102562.25
2022-09-20T19:45:16.425Z,102571.06
2022-09-20T19:48:06.722Z,102572.91
2022-09-20T19:50:46.283Z,102572.13
2022-09-20T19:53:14.713Z,102584.19
2022-09-20T19:55:47.129Z,102578.53
2022-09-20T19:58:15.055Z,102584.81
2022-09-20T20:00:46.416Z,102586.75
2022-09-20T20:03:14.665Z,102586.19
2022-09-20T20:06:11.794Z,102587.72
2022-09-20T20:08:41.975Z,102576.88
2022-09-20T20:11:40.703Z,102583.34
2022-09-20T20:15:01.993Z,102581.63
2022-09-20T20:18:07.748Z,102576.94
2022-09-20T20:20:47.630Z,102582.44
2022-09-20T20:23:35.918Z,102576.03
2022-09-20T20:26:08.581Z,102582.72
2022-09-20T20:28:37.210Z,102585.00
2022-09-20T20:31:04.585Z,102586.34
2022-09-20T20:33:32.898Z,102602.16
2022-09-20T20:36:01.418Z,102593.47
2022-09-20T20:38:28.437Z,102599.13
2022-09-20T20:41:09.772Z,102602.66
2022-09-20T20:43:39.169Z,102603.13
2022-09-20T20:46:08.119Z,102615.34
2022-09-20T20:48:36.296Z,102627.25
2022-09-20T20:51:04.473Z,102624.19
2022-09-20T20:53:36.009Z,102621.59
2022-09-20T20:56:22.812Z,102617.03
2022-09-20T20:58:49.790Z,102640.31
2022-09-20T21:01:21.885Z,102637.72
2022-09-20T21:03:53.187Z,102631.97
2022-09-20T21:06:21.540Z,102643.69
2022-09-20T21:08:49.804Z,102646.47
2022-09-20T21:11:25.601Z,102641.94
2022-09-20T21:13:53.970Z,102648.59
2022-09-20T21:16:23.265Z,102635.94
2022-09-20T21:18:50.916Z,102637.50
2022-09-20T21:21:27.686Z,102637.31
2022-09-20T21:23:58.914Z,102638.44
2022-09-20T21:26:27.805Z,102636.34
2022-09-20T21:28:59.658Z,102636.41
2022-09-20T21:31:28.642Z,102630.38
2022-09-20T21:33:55.707Z,102632.16
2022-09-20T21:36:24.646Z,102639.88
2022-09-20T21:38:51.359Z,102650.81
2022-09-20T21:41:19.782Z,102643.00
2022-09-20T21:43:47.621Z,102642.25
2022-09-20T21:46:17.613Z,102642.41
2022-09-20T21:48:44.980Z,102644.25
2022-09-20T21:51:13.809Z,102647.34
2022-09-20T21:53:41.106Z,102642.16
2022-09-20T21:56:10.026Z,102651.94
2022-09-20T21:58:40.004Z,102651.63
2022-09-20T22:01:12.297Z,102652.44
2022-09-20T22:03:40.929Z,102656.22
2022-09-20T22:06:15.087Z,102657.69
2022-09-20T22:08:46.454Z,102646.00
2022-09-20T22:11:14.925Z,102648.75
2022-09-20T22:13:43.958Z,102651.53
2022-09-20T22:16:16.143Z,102656.06
2022-09-20T22:18:44.075Z,102654.78
2022-09-20T22:21:23.169Z,102652.31
2022-09-20T22:23:52.119Z,102661.41
2022-09-20T22:26:21.350Z,102651.88
2022-09-20T22:28:51.942Z,102658.72
2022-09-20T22:31:24.997Z,102660.81
2022-09-20T22:33:54.470Z,102659.56
2022-09-20T22:36:23.757Z,102665.06
2022-09-20T22:38:51.489Z,102661.34
2022-09-20T22:41:19.458Z,102669.94
2022-09-20T22:43:46.907Z,102680.03
2022-09-20T22:46:19.423Z,102676.28
2022-09-20T22:48:46.806Z,102669.78
2022-09-20T22:51:18.616Z,102678.56
2022-09-20T22:53:46.623Z,102680.19
2022-09-20T22:56:16.538Z,102669.94
2022-09-20T22:58:48.818Z,102674.66
2022-09-20T23:01:18.920Z,102675.47
2022-09-20T23:03:48.651Z,102675.00
2022-09-20T23:06:27.551Z,102664.75
2022-09-20T23:08:57.797Z,102677.59
2022-09-20T23:11:25.499Z,102680.81
2022-09-20T23:13:57.816Z,102672.38
2022-09-20T23:16:27.598Z,102683.75
2022-09-20T23:18:55.749Z,102675.47
2022-09-20T23:21:23.401Z,102693.00
2022-09-20T23:23:54.913Z,102689.56
2022-09-20T23:26:22.211Z,102687.47
2022-09-20T23:28:57.239Z,102684.66
2022-09-20T23:31:24.765Z,102689.03
2022-09-20T23:33:54.309Z,102697.97
2022-09-20T23:36:22.140Z,102691.81
2022-09-20T23:38:49.602Z,102691.22
2022-09-20T23:41:19.402Z,102685.69
2022-09-20T23:43:46.806Z,102687.47
2022-09-20T23:46:15.309Z,102687.16
2022-09-20T23:48:42.389Z,102681.50
2022-09-20T23:51:14.864Z,102690.22
2022-09-20T23:53:42.884Z,102682.44
2022-09-20T23:56:10.920Z,102684.25
2022-09-20T23:58:39.180Z,102679.53
